Date,TemperatureHighF,TemperatureAvgF,TemperatureLowF,DewpointHighF,DewpointAvgF,DewpointLowF,HumidityHigh,HumidityAvg,HumidityLow,PressureMaxIn,PressureMinIn,WindSpeedMaxMPH,WindSpeedAvgMPH,GustSpeedMaxMPH,PrecipitationSumIn
2013-7-1,83,73,67,74,69,66,99,90,67,29.91,29.75,5,0,6,0.92
2013-7-2,82,73,67,76,70,66,100,93,79,30.08,29.90,5,0,5,0.01
2013-7-3,83,71,64,75,70,64,100,96,76,30.16,30.04,5,0,6,1.26
2013-7-4,77,68,64,75,68,64,100,99,92,30.18,30.09,3,0,3,2.04
2013-7-5,86,72,68,75,70,68,100,93,64,30.20,30.12,5,0,5,0.16
2013-7-6,85,74,68,76,72,67,100,94,68,30.17,30.05,5,0,6,1.07
2013-7-7,81,73,69,75,72,68,100,95,79,30.12,30.02,5,0,5,2.04
2013-7-8,87,76,69,78,72,69,100,90,66,30.13,30.05,4,0,6,0.07
2013-7-9,88,76,68,78,72,68,100,89,65,30.13,29.99,5,0,5,0.26
2013-7-10,85,74,69,78,72,69,100,94,77,30.08,29.90,3,0,4,0.14
2013-7-11,81,74,69,76,72,69,100,96,80,29.92,29.81,4,0,4,0.14
2013-7-12,86,73,66,76,71,65,100,94,68,29.94,29.81,4,0,4,0.15
2013-7-13,77,70,65,73,68,64,100,94,82,30.06,29.94,5,0,5,0.01
2013-7-14,77,72,68,74,71,68,100,98,88,30.22,30.04,8,0,8,0.74
2013-7-15,85,75,69,76,72,69,100,91,71,30.28,30.19,4,0,4,0.01
2013-7-16,91,79,70,78,73,69,100,85,62,30.26,30.16,3,0,4,0.00
2013-7-17,93,77,69,80,72,67,100,86,59,30.20,30.07,5,0,6,0.18
2013-7-18,88,77,68,78,73,68,100,87,60,30.14,30.01,3,0,3,0.01
2013-7-19,90,78,69,78,73,69,100,86,61,30.06,29.92,5,0,5,0.00
2013-7-20,86,74,70,78,73,68,100,95,73,29.98,29.89,6,0,6,0.59
2013-7-21,86,74,69,78,72,69,100,93,71,29.96,29.88,3,0,4,0.29
2013-7-22,84,74,68,76,72,68,100,92,72,29.96,29.79,7,0,8,0.03
2013-7-23,89,76,66,76,71,65,100,87,63,29.85,29.73,4,0,5,0.00
2013-7-24,88,75,70,76,70,67,96,84,54,29.79,29.70,5,0,5,0.11
2013-7-25,87,74,67,74,69,65,97,86,64,29.96,29.77,4,0,4,0.01
2013-7-26,85,74,66,75,70,64,97,88,71,30.04,29.95,4,0,4,0.00
2013-7-27,81,73,67,75,71,67,100,94,79,30.00,29.83,5,0,8,5.01
2013-7-28,85,74,68,74,70,66,100,88,64,29.96,29.85,4,0,4,0.00
2013-7-29,86,74,64,73,67,60,95,80,58,30.11,29.96,3,0,3,0.00
2013-7-30,83,73,64,74,67,59,96,81,67,30.17,30.07,3,0,4,0.00
2013-7-31,77,72,69,74,71,69,100,97,85,30.12,29.92,4,0,4,1.79